Time;durP1;ratioP1;P1;durP2;ratioP2;P2;SDS_P1;SDS_P2;PMS_P1;PMS_P2;Temp;Humidity;BMP_temperature;BMP_pressure;BME280_temperature;BME280_humidity;BME280_pressure;Samples;Min_cycle;Max_cycle;Signal;HPM_P1;HPM_P2
2024/03/21 00:00:21;;;;;;;6.13;3.30;;;9.20;59.50;;;;;;5106378;28;20223;-65
2024/03/21 00:02:56;;;;;;;7.47;3.90;;;9.10;59.60;;;;;;5116636;28;20263;-65
2024/03/21 00:08:45;;;;;;;5.47;3.55;;;9.10;59.10;;;;;;5116634;28;20506;-63
2024/03/21 00:14:34;;;;;;;5.57;3.50;;;9.00;59.90;;;;;;5116218;28;20629;-65
2024/03/21 00:17:01;;;;;;;6.28;3.45;;;9.00;60.00;;;;;;5116598;28;20270;-66
2024/03/21 00:20:20;;;;;;;6.30;3.67;;;9.00;60.10;;;;;;5117413;28;20260;-65
2024/03/21 00:26:10;;;;;;;6.63;3.92;;;9.00;60.50;;;;;;5116557;28;20194;-65
2024/03/21 00:28:36;;;;;;;5.97;3.20;;;9.00;60.40;;;;;;5115599;28;20216;-65
2024/03/21 00:31:03;;;;;;;7.30;3.80;;;9.00;61.40;;;;;;5116084;28;20219;-65
2024/03/21 00:36:59;;;;;;;8.15;3.95;;;9.00;61.50;;;;;;5116082;28;20304;-65
2024/03/21 00:42:48;;;;;;;4.68;3.25;;;8.90;61.20;;;;;;5114532;28;20240;-65
2024/03/21 00:45:14;;;;;;;5.75;3.38;;;8.80;61.30;;;;;;5115031;28;20267;-65
2024/03/21 00:47:51;;;;;;;3.95;2.92;;;8.80;62.40;;;;;;5115743;28;20229;-65
2024/03/21 00:53:41;;;;;;;9.45;3.17;;;8.80;63.00;;;;;;5115220;28;20204;-65
2024/03/21 00:56:07;;;;;;;5.43;2.65;;;8.80;63.30;;;;;;5116428;28;20211;-65
2024/03/21 01:02:42;;;;;;;3.70;2.90;;;8.70;63.70;;;;;;5107751;28;20484;-65
2024/03/21 01:05:08;;;;;;;5.35;3.15;;;8.60;64.30;;;;;;5074163;28;20253;-65
2024/03/21 01:10:59;;;;;;;4.82;2.60;;;8.60;64.70;;;;;;5074102;28;20154;-64
2024/03/21 01:13:25;;;;;;;4.53;2.80;;;8.70;63.90;;;;;;5074278;28;20181;-64
2024/03/21 01:19:13;;;;;;;4.78;3.25;;;8.70;64.60;;;;;;5100600;28;20409;-64
2024/03/21 01:22:04;;;;;;;5.18;3.42;;;8.70;64.30;;;;;;5115323;28;20177;-64
2024/03/21 01:24:31;;;;;;;4.50;2.80;;;8.70;62.80;;;;;;5114336;28;20184;-64
2024/03/21 01:27:40;;;;;;;4.78;3.25;;;8.70;62.00;;;;;;5114931;28;20208;-64
2024/03/21 01:33:33;;;;;;;5.65;3.13;;;8.50;61.80;;;;;;5113730;28;20171;-64
2024/03/21 01:35:59;;;;;;;4.28;3.00;;;8.40;61.30;;;;;;5114382;28;20603;-64
2024/03/21 01:38:26;;;;;;;4.50;2.90;;;8.30;61.40;;;;;;5114993;28;20228;-64
2024/03/21 01:44:16;;;;;;;4.18;2.85;;;8.20;61.10;;;;;;5114014;28;20199;-65
2024/03/21 01:50:08;;;;;;;5.47;3.30;;;8.10;61.10;;;;;;5113816;28;20152;-65
2024/03/21 01:55:57;;;;;;;5.05;2.65;;;8.10;62.10;;;;;;5113535;28;20598;-66
2024/03/21 02:05:23;;;;;;;7.10;2.80;;;8.10;62.80;;;;;;5113996;28;20622;-66
2024/03/21 02:07:52;;;;;;;3.60;2.03;;;8.10;63.00;;;;;;5114683;28;20279;-66
2024/03/21 02:13:41;;;;;;;5.07;3.15;;;8.10;65.40;;;;;;5114199;28;20248;-66
2024/03/21 02:19:31;;;;;;;4.22;2.20;;;8.20;66.60;;;;;;5114262;28;20167;-66
2024/03/21 02:25:23;;;;;;;3.65;2.17;;;8.30;67.10;;;;;;5113809;28;20247;-66
2024/03/21 02:27:52;;;;;;;5.38;2.78;;;8.40;67.20;;;;;;5114575;28;20665;-65
2024/03/21 02:30:19;;;;;;;4.25;2.50;;;8.50;67.70;;;;;;5112783;28;20244;-65
2024/03/21 02:36:09;;;;;;;4.68;2.55;;;8.60;68.50;;;;;;5114311;28;20194;-65
2024/03/21 02:38:35;;;;;;;4.10;2.67;;;8.70;68.80;;;;;;5113623;28;20232;-65
2024/03/21 02:41:03;;;;;;;3.50;2.30;;;8.80;69.20;;;;;;5113822;28;20191;-65
2024/03/21 02:44:25;;;;;;;3.30;2.03;;;8.80;69.00;;;;;;5114309;28;20211;-65
2024/03/21 02:50:14;;;;;;;6.97;2.75;;;9.00;68.40;;;;;;5113555;28;20232;-65
2024/03/21 02:52:39;;;;;;;3.80;1.80;;;9.00;68.60;;;;;;5114037;28;20216;-65
2024/03/21 02:55:07;;;;;;;3.40;1.93;;;9.00;68.00;;;;;;5114536;28;20215;-65
2024/03/21 03:04:32;;;;;;;4.47;2.67;;;9.10;66.50;;;;;;5113959;28;20153;-66
2024/03/21 03:07:26;;;;;;;5.38;2.53;;;9.10;66.10;;;;;;5114379;28;20215;-65
2024/03/21 03:09:53;;;;;;;5.35;3.33;;;9.00;66.20;;;;;;5113205;28;20180;-64
2024/03/21 03:12:26;;;;;;;6.15;3.10;;;9.00;66.70;;;;;;5114330;28;20183;-64
2024/03/21 03:18:15;;;;;;;6.70;3.75;;;9.00;67.00;;;;;;5113020;28;20621;-65
2024/03/21 03:24:06;;;;;;;8.35;2.47;;;9.00;66.30;;;;;;5113831;28;20644;-65
2024/03/21 03:29:55;;;;;;;3.35;2.17;;;8.90;65.80;;;;;;5113451;28;20171;-65
2024/03/21 03:35:44;;;;;;;6.00;3.38;;;8.90;66.60;;;;;;5113367;28;20193;-65
2024/03/21 03:38:13;;;;;;;5.32;2.97;;;8.90;65.80;;;;;;5113579;28;20204;-65
2024/03/21 03:40:40;;;;;;;4.95;2.97;;;8.90;65.80;;;;;;5115794;28;20200;-65
2024/03/21 03:43:07;;;;;;;4.03;2.65;;;8.80;65.80;;;;;;5117007;28;20214;-66
2024/03/21 03:45:34;;;;;;;5.97;2.92;;;8.80;66.10;;;;;;5116537;28;20242;-66
2024/03/21 03:48:01;;;;;;;5.53;2.97;;;8.80;66.60;;;;;;5116765;28;20177;-65
2024/03/21 03:50:28;;;;;;;4.18;2.70;;;8.80;66.50;;;;;;5117232;28;20675;-65
2024/03/21 03:52:55;;;;;;;6.43;3.13;;;8.70;66.60;;;;;;5116861;28;20263;-65
2024/03/21 03:55:21;;;;;;;7.53;3.15;;;8.70;67.00;;;;;;5116724;28;20187;-65
2024/03/21 03:57:50;;;;;;;4.47;2.80;;;8.80;66.90;;;;;;5116981;28;20196;-65
2024/03/21 04:00:16;;;;;;;4.50;3.15;;;8.70;66.50;;;;;;5117049;28;20465;-65
2024/03/21 04:13:48;;;;;;;5.70;3.20;;;8.70;69.00;;;;;;5116612;28;20218;-65
2024/03/21 04:22:58;;;;;;;5.15;2.85;;;8.80;69.40;;;;;;5116657;28;20190;-66
2024/03/21 04:28:48;;;;;;;7.05;4.32;;;8.80;68.80;;;;;;5115398;28;20256;-65
2024/03/21 04:34:37;;;;;;;8.30;5.47;;;8.80;69.50;;;;;;5116392;28;20606;-65
2024/03/21 04:37:48;;;;;;;7.43;4.28;;;8.80;69.80;;;;;;5115942;28;20181;-65
2024/03/21 04:40:16;;;;;;;8.13;3.95;;;8.90;70.30;;;;;;5115931;28;20176;-65
2024/03/21 04:42:43;;;;;;;4.97;3.33;;;8.90;70.60;;;;;;5115890;28;20184;-65
2024/03/21 04:48:33;;;;;;;4.38;2.75;;;9.00;70.70;;;;;;5115594;28;20562;-66
2024/03/21 04:54:23;;;;;;;4.18;2.90;;;9.00;70.50;;;;;;5115784;28;20152;-65
2024/03/21 05:00:13;;;;;;;4.85;3.80;;;9.10;70.90;;;;;;5115623;28;20175;-65
2024/03/21 05:09:25;;;;;;;6.78;2.80;;;9.10;70.60;;;;;;5115175;28;20608;-65
2024/03/21 05:15:14;;;;;;;6.57;2.40;;;9.10;71.00;;;;;;5115381;28;20214;-65
2024/03/21 05:21:04;;;;;;;4.70;2.60;;;9.20;71.20;;;;;;5115591;28;20648;-66
2024/03/21 05:26:53;;;;;;;5.05;2.80;;;9.20;71.60;;;;;;5114699;28;20207;-65
2024/03/21 05:30:09;;;;;;;3.63;2.30;;;9.30;71.30;;;;;;5114852;28;20179;-66
2024/03/21 05:32:36;;;;;;;5.65;2.97;;;9.30;71.30;;;;;;5113884;28;20180;-65
2024/03/21 05:35:20;;;;;;;6.90;3.50;;;9.40;71.30;;;;;;5114722;28;20579;-65
2024/03/21 05:37:47;;;;;;;6.75;3.70;;;9.30;70.80;;;;;;5074115;28;20204;-65
2024/03/21 05:40:13;;;;;;;4.35;2.78;;;9.40;71.00;;;;;;5073765;28;20256;-65
2024/03/21 05:43:13;;;;;;;5.32;2.30;;;9.30;71.40;;;;;;5074481;28;20185;-65
2024/03/21 05:45:39;;;;;;;3.60;1.92;;;9.30;71.90;;;;;;5108985;28;20533;-66
2024/03/21 05:48:13;;;;;;;3.83;1.70;;;9.40;72.00;;;;;;5114298;28;20176;-66
2024/03/21 05:54:05;;;;;;;5.03;2.75;;;9.40;72.60;;;;;;5113809;28;20206;-65
2024/03/21 05:56:31;;;;;;;4.20;2.80;;;9.50;72.80;;;;;;5111318;28;20188;-66
2024/03/21 05:59:00;;;;;;;5.10;2.87;;;9.50;72.50;;;;;;5095646;28;20220;-66
2024/03/21 06:01:32;;;;;;;6.75;3.90;;;9.60;72.60;;;;;;5098226;28;20431;-66
2024/03/21 06:03:59;;;;;;;6.22;3.00;;;9.70;72.80;;;;;;5113469;28;20236;-66
2024/03/21 06:06:25;;;;;;;5.75;3.80;;;9.70;72.80;;;;;;5113099;28;20291;-65
2024/03/21 06:08:52;;;;;;;4.13;2.90;;;9.90;72.40;;;;;;5111961;28;20659;-66
2024/03/21 06:12:05;;;;;;;5.20;2.80;;;9.90;71.90;;;;;;5112706;28;20506;-66
2024/03/21 06:14:33;;;;;;;6.68;3.13;;;10.10;71.50;;;;;;5073232;28;20227;-66
2024/03/21 06:17:14;;;;;;;4.28;2.05;;;10.20;69.30;;;;;;5098765;28;20172;-66
2024/03/21 06:19:40;;;;;;;6.82;3.35;;;10.30;68.50;;;;;;5094454;28;20291;-65
2024/03/21 06:22:26;;;;;;;4.77;3.40;;;10.50;67.90;;;;;;5113885;28;20289;-65
2024/03/21 06:24:52;;;;;;;4.97;2.65;;;10.60;68.00;;;;;;5112919;28;20422;-66
2024/03/21 06:27:20;;;;;;;3.40;1.93;;;10.80;68.80;;;;;;5113644;28;20176;-65
2024/03/21 06:39:54;;;;;;;4.22;2.42;;;11.40;66.20;;;;;;5112430;28;20191;-66
2024/03/21 06:45:43;;;;;;;4.47;1.80;;;11.60;64.70;;;;;;5109993;28;20172;-66
2024/03/21 06:58:46;;;;;;;7.15;2.50;;;12.30;64.40;;;;;;5092960;28;20623;-66
2024/03/21 07:01:13;;;;;;;8.73;3.08;;;12.40;64.00;;;;;;5072933;28;20178;-66
2024/03/21 07:03:40;;;;;;;3.73;2.40;;;12.60;63.60;;;;;;5102100;28;20187;-66
2024/03/21 07:06:06;;;;;;;3.50;2.00;;;12.80;64.00;;;;;;5104857;28;20541;-65
2024/03/21 07:08:34;;;;;;;4.77;2.27;;;12.90;64.70;;;;;;5113072;28;20924;-65
2024/03/21 07:11:00;;;;;;;3.10;2.07;;;13.20;65.20;;;;;;5112625;28;20423;-65
2024/03/21 07:13:46;;;;;;;5.60;2.67;;;13.40;64.70;;;;;;5114176;28;20475;-65
2024/03/21 07:16:16;;;;;;;4.60;2.47;;;13.70;64.30;;;;;;5115325;28;20477;-65
2024/03/21 07:22:05;;;;;;;4.60;2.67;;;14.50;64.00;;;;;;5116442;28;20474;-65
2024/03/21 07:24:32;;;;;;;4.63;1.70;;;15.30;63.00;;;;;;5116130;28;20430;-65
2024/03/21 07:27:01;;;;;;;4.23;2.33;;;15.80;60.30;;;;;;5117164;28;20788;-65
2024/03/21 07:32:53;;;;;;;7.20;2.70;;;16.60;57.20;;;;;;5116885;28;20383;-65
2024/03/21 07:35:19;;;;;;;4.13;1.87;;;16.70;56.30;;;;;;5117126;28;20543;-65
2024/03/21 07:38:33;;;;;;;4.20;2.30;;;16.60;55.50;;;;;;5116722;28;20800;-66
2024/03/21 07:41:02;;;;;;;3.90;2.17;;;16.60;55.00;;;;;;5117217;28;20467;-65
2024/03/21 07:43:29;;;;;;;5.00;2.10;;;16.50;54.70;;;;;;5115740;28;20869;-65
2024/03/21 07:46:40;;;;;;;7.67;2.53;;;16.40;55.20;;;;;;5116605;28;20470;-65
2024/03/21 07:49:08;;;;;;;4.67;2.40;;;16.50;55.50;;;;;;5115581;28;20432;-66
2024/03/21 07:51:35;;;;;;;4.40;2.57;;;16.50;56.00;;;;;;5116103;28;20441;-65
2024/03/21 07:54:06;;;;;;;4.33;2.10;;;16.60;55.60;;;;;;5116493;28;20434;-65
2024/03/21 07:56:33;;;;;;;3.93;1.90;;;16.80;54.90;;;;;;5116402;28;20505;-65
2024/03/21 07:59:27;;;;;;;6.80;2.10;;;16.90;54.80;;;;;;5117549;28;20463;-65
2024/03/21 08:01:56;;;;;;;4.77;1.80;;;17.00;54.10;;;;;;5116853;28;20424;-65
2024/03/21 08:04:23;;;;;;;6.67;1.70;;;17.30;54.20;;;;;;5116278;28;20510;-65
2024/03/21 08:06:50;;;;;;;3.10;1.97;;;17.60;53.60;;;;;;5116456;28;20971;-65
2024/03/21 08:09:16;;;;;;;3.27;1.63;;;18.00;54.20;;;;;;5116277;28;20476;-65
2024/03/21 08:11:43;;;;;;;3.70;1.40;;;18.10;51.40;;;;;;5116138;28;20469;-64
2024/03/21 08:14:09;;;;;;;3.20;1.67;;;18.20;51.30;;;;;;5116424;28;20461;-66
2024/03/21 08:16:36;;;;;;;4.10;1.80;;;18.30;50.80;;;;;;5116340;28;20982;-66
2024/03/21 08:19:02;;;;;;;3.00;1.73;;;18.50;49.70;;;;;;5115904;28;20505;-66
2024/03/21 08:21:30;;;;;;;4.90;1.73;;;18.60;49.20;;;;;;5116000;28;20469;-66
2024/03/21 08:23:56;;;;;;;4.23;1.40;;;18.80;49.40;;;;;;5115921;28;20908;-66
2024/03/21 08:26:23;;;;;;;3.80;1.73;;;19.10;50.20;;;;;;5115527;28;20430;-66
2024/03/21 08:28:49;;;;;;;4.57;1.50;;;19.40;48.90;;;;;;5115965;28;20488;-66
2024/03/21 08:31:15;;;;;;;3.70;1.50;;;19.50;47.70;;;;;;5116055;28;20904;-66
2024/03/21 08:33:41;;;;;;;4.27;1.30;;;19.60;47.10;;;;;;5116053;28;20522;-66
2024/03/21 08:36:08;;;;;;;5.87;1.27;;;19.50;45.70;;;;;;5115896;28;20517;-66
2024/03/21 08:38:36;;;;;;;5.97;2.20;;;19.40;46.10;;;;;;5115683;28;20560;-67
2024/03/21 08:41:03;;;;;;;6.37;1.43;;;19.20;45.20;;;;;;5115823;28;20811;-67
2024/03/21 08:43:29;;;;;;;4.00;1.60;;;19.00;45.10;;;;;;5115407;28;20514;-66
2024/03/21 08:45:56;;;;;;;5.30;1.43;;;18.70;45.40;;;;;;5115871;28;20483;-66
2024/03/21 08:48:22;;;;;;;4.53;1.57;;;18.50;46.30;;;;;;5115870;28;20525;-66
2024/03/21 08:50:49;;;;;;;3.87;1.57;;;18.20;46.50;;;;;;5115665;28;20516;-66
2024/03/21 08:53:17;;;;;;;3.87;1.70;;;18.00;47.50;;;;;;5115423;28;20465;-66
2024/03/21 08:55:45;;;;;;;3.13;1.57;;;17.80;48.20;;;;;;5115594;28;20430;-66
2024/03/21 08:58:12;;;;;;;4.67;2.23;;;17.60;49.00;;;;;;5115175;28;20468;-66
2024/03/21 09:00:40;;;;;;;5.83;2.33;;;17.40;50.50;;;;;;5115576;28;20507;-66
2024/03/21 09:03:06;;;;;;;3.83;1.73;;;17.30;50.90;;;;;;5115270;28;20529;-66
2024/03/21 09:05:33;;;;;;;3.70;1.70;;;17.10;51.70;;;;;;5115212;28;20511;-67
2024/03/21 09:07:59;;;;;;;4.97;1.80;;;16.90;52.70;;;;;;5115302;28;20468;-66
2024/03/21 09:10:26;;;;;;;4.63;1.73;;;16.80;53.80;;;;;;5115079;28;20962;-66
2024/03/21 09:12:54;;;;;;;9.30;1.90;;;16.70;54.70;;;;;;5115117;28;20509;-66
2024/03/21 09:15:22;;;;;;;4.23;1.70;;;16.50;55.70;;;;;;5115051;28;20439;-66
2024/03/21 09:17:48;;;;;;;4.50;2.10;;;16.30;56.40;;;;;;5115056;28;20477;-66
2024/03/21 09:20:15;;;;;;;4.57;2.00;;;16.20;57.10;;;;;;5114670;28;20666;-66
2024/03/21 09:22:41;;;;;;;4.10;1.83;;;16.10;58.00;;;;;;5114926;28;20494;-66
2024/03/21 09:25:08;;;;;;;6.50;2.50;;;15.90;58.70;;;;;;5114970;28;20477;-66
2024/03/21 09:27:34;;;;;;;5.83;2.03;;;15.80;59.40;;;;;;5114830;28;20468;-66
2024/03/21 09:30:03;;;;;;;5.03;1.97;;;15.70;60.70;;;;;;5114818;28;20442;-66
2024/03/21 09:32:29;;;;;;;3.57;2.20;;;15.60;61.60;;;;;;5114756;28;20481;-66
2024/03/21 09:34:56;;;;;;;6.53;2.30;;;15.60;62.60;;;;;;5114372;28;20920;-66
2024/03/21 09:37:23;;;;;;;3.60;1.93;;;15.50;63.70;;;;;;5113998;28;20815;-65
2024/03/21 09:39:50;;;;;;;3.37;2.03;;;15.40;64.90;;;;;;5114431;28;20457;-66
2024/03/21 09:42:19;;;;;;;5.57;2.33;;;15.30;66.20;;;;;;5114470;28;20430;-66
2024/03/21 09:44:48;;;;;;;4.20;2.33;;;15.20;67.10;;;;;;5114297;28;20916;-65
2024/03/21 09:47:17;;;;;;;8.33;2.60;;;15.20;67.80;;;;;;5114448;28;20442;-65
2024/03/21 09:49:45;;;;;;;4.60;2.30;;;15.10;68.60;;;;;;5114354;28;20466;-66
2024/03/21 09:52:11;;;;;;;3.40;2.20;;;15.00;69.30;;;;;;5114336;28;20430;-66
2024/03/21 09:54:41;;;;;;;4.50;2.73;;;14.90;69.70;;;;;;5114290;28;20499;-66
2024/03/21 09:57:12;;;;;;;4.73;2.00;;;14.90;71.10;;;;;;5114832;28;20494;-66
2024/03/21 09:59:45;;;;;;;5.90;2.53;;;14.80;71.70;;;;;;5113817;28;20515;-66
2024/03/21 10:02:12;;;;;;;3.90;2.03;;;14.70;72.50;;;;;;5113896;28;20437;-66
2024/03/21 10:04:46;;;;;;;4.47;2.10;;;14.70;72.60;;;;;;5113784;28;20460;-65
2024/03/21 10:07:19;;;;;;;4.87;1.90;;;14.70;73.50;;;;;;5114262;28;20792;-67
2024/03/21 10:09:56;;;;;;;4.70;2.73;;;14.70;73.90;;;;;;5113803;28;20433;-66
2024/03/21 10:12:23;;;;;;;3.33;1.50;;;14.70;73.80;;;;;;5114142;28;20475;-66
2024/03/21 10:14:55;;;;;;;3.80;2.20;;;14.70;74.00;;;;;;5113572;28;20958;-65
2024/03/21 10:17:24;;;;;;;5.10;2.33;;;14.70;74.60;;;;;;5113648;28;20893;-66
2024/03/21 10:19:52;;;;;;;4.53;2.50;;;14.70;75.00;;;;;;5113992;28;20515;-66
2024/03/21 10:22:19;;;;;;;3.70;2.13;;;14.60;75.30;;;;;;5113654;28;20933;-66
2024/03/21 10:24:52;;;;;;;3.50;1.93;;;14.60;76.00;;;;;;5113792;28;20454;-66
2024/03/21 10:27:18;;;;;;;4.60;2.00;;;14.60;76.70;;;;;;5110838;28;20462;-66
2024/03/21 10:29:46;;;;;;;2.67;1.40;;;14.60;76.10;;;;;;5114063;28;20513;-65
2024/03/21 10:32:17;;;;;;;7.37;1.93;;;14.50;75.60;;;;;;5113947;28;20486;-66
2024/03/21 10:34:49;;;;;;;3.27;1.87;;;14.50;76.00;;;;;;5113740;28;20427;-66
2024/03/21 10:37:17;;;;;;;3.50;2.00;;;14.40;76.40;;;;;;5113416;28;20434;-65
2024/03/21 10:39:44;;;;;;;3.90;1.63;;;14.40;76.60;;;;;;5113505;28;20488;-67
2024/03/21 10:42:22;;;;;;;2.63;1.70;;;14.30;76.40;;;;;;5113343;28;20463;-66
2024/03/21 10:44:53;;;;;;;3.13;1.80;;;14.30;77.30;;;;;;5113051;28;20479;-66
2024/03/21 10:47:19;;;;;;;3.03;1.97;;;14.30;77.30;;;;;;5113598;28;20418;-67
2024/03/21 10:49:46;;;;;;;3.73;2.20;;;14.20;78.40;;;;;;5115386;27;20437;-65
2024/03/21 10:52:17;;;;;;;3.60;2.23;;;14.20;78.90;;;;;;5117883;28;20917;-66
2024/03/21 10:54:44;;;;;;;3.50;2.40;;;14.10;79.80;;;;;;5117452;28;20438;-65
2024/03/21 10:57:17;;;;;;;6.70;2.53;;;14.10;80.40;;;;;;5117413;28;20937;-66
2024/03/21 10:59:55;;;;;;;4.73;2.10;;;14.00;81.00;;;;;;5116686;28;20569;-66
2024/03/21 11:02:21;;;;;;;3.07;1.63;;;14.00;81.10;;;;;;5117365;28;20450;-66
2024/03/21 11:04:48;;;;;;;6.10;2.70;;;14.00;81.30;;;;;;5117520;28;20438;-65
2024/03/21 11:07:17;;;;;;;4.00;1.97;;;14.00;81.50;;;;;;5117567;28;20813;-65
2024/03/21 11:09:46;;;;;;;3.23;2.37;;;14.00;81.30;;;;;;5117465;28;20483;-66
2024/03/21 11:12:17;;;;;;;2.80;1.63;;;14.10;82.20;;;;;;5117125;28;20434;-65
2024/03/21 11:14:46;;;;;;;3.60;1.97;;;14.10;82.20;;;;;;5117452;28;20817;-65
2024/03/21 11:17:14;;;;;;;4.30;1.83;;;14.10;82.70;;;;;;5116939;28;20438;-65
2024/03/21 11:19:41;;;;;;;5.33;2.20;;;14.10;82.80;;;;;;5116837;28;20461;-66
2024/03/21 11:22:11;;;;;;;4.10;2.17;;;14.10;82.70;;;;;;5116975;28;20438;-65
2024/03/21 11:24:40;;;;;;;4.17;2.30;;;14.10;82.90;;;;;;5119037;28;20509;-65
2024/03/21 11:27:16;;;;;;;5.40;2.30;;;14.10;82.60;;;;;;5117140;28;20469;-66
2024/03/21 11:29:43;;;;;;;4.27;2.10;;;14.20;82.40;;;;;;5116638;28;20433;-66
2024/03/21 11:32:10;;;;;;;3.40;1.77;;;14.20;80.70;;;;;;5116770;28;20489;-65
2024/03/21 11:34:38;;;;;;;8.73;1.80;;;14.20;80.10;;;;;;5117069;28;20524;-66
2024/03/21 11:37:05;;;;;;;3.20;1.63;;;14.20;78.50;;;;;;5116846;28;20477;-65
2024/03/21 11:39:35;;;;;;;2.60;1.47;;;14.10;78.30;;;;;;5116140;28;20633;-66
2024/03/21 11:42:03;;;;;;;2.70;1.60;;;14.20;79.10;;;;;;5117173;28;20440;-65
2024/03/21 11:44:30;;;;;;;2.73;1.30;;;14.20;79.00;;;;;;5116799;28;20787;-66
2024/03/21 11:46:56;;;;;;;3.67;1.60;;;14.20;78.80;;;;;;5115462;28;20820;-65
2024/03/21 11:49:23;;;;;;;2.47;1.10;;;14.20;78.50;;;;;;5116700;28;20467;-66
2024/03/21 11:51:49;;;;;;;3.03;1.47;;;14.30;77.30;;;;;;5116811;28;20541;-66
2024/03/21 11:54:16;;;;;;;2.47;1.30;;;14.40;77.20;;;;;;5116722;28;20438;-66
2024/03/21 11:56:42;;;;;;;3.50;1.60;;;14.40;76.70;;;;;;5116735;28;20497;-66
2024/03/21 11:59:10;;;;;;;2.50;1.33;;;14.60;76.00;;;;;;5116677;28;20975;-66
2024/03/21 12:01:36;;;;;;;2.30;1.20;;;14.60;75.70;;;;;;5115857;28;20466;-66
2024/03/21 12:04:04;;;;;;;3.20;1.30;;;14.70;76.20;;;;;;5116399;28;20485;-66
2024/03/21 12:06:30;;;;;;;2.57;1.43;;;14.70;76.60;;;;;;5116190;28;20511;-66
2024/03/21 12:08:57;;;;;;;2.70;1.20;;;14.90;77.20;;;;;;5115438;28;20925;-66
2024/03/21 12:11:25;;;;;;;2.27;1.00;;;15.10;76.90;;;;;;5116139;28;20452;-66
2024/03/21 12:13:52;;;;;;;2.60;1.13;;;15.30;77.10;;;;;;5096694;28;20914;-66
2024/03/21 12:16:20;;;;;;;3.07;1.40;;;15.50;76.40;;;;;;5094967;28;20431;-66
2024/03/21 12:18:48;;;;;;;2.60;1.13;;;15.90;76.50;;;;;;5095671;28;20439;-67
2024/03/21 12:21:16;;;;;;;5.30;2.00;;;16.20;74.40;;;;;;5099066;28;20495;-67
2024/03/21 12:23:49;;;;;;;3.40;1.67;;;16.70;70.40;;;;;;5116101;28;20436;-67
2024/03/21 12:26:16;;;;;;;3.03;1.40;;;17.00;66.80;;;;;;5114837;28;20987;-67
2024/03/21 12:28:45;;;;;;;2.93;1.23;;;17.40;67.50;;;;;;5115460;28;20904;-67
2024/03/21 12:31:12;;;;;;;4.67;1.50;;;18.20;65.50;;;;;;5115116;28;20552;-67
2024/03/21 12:33:41;;;;;;;3.00;1.50;;;19.10;61.30;;;;;;5115193;28;20482;-67
2024/03/21 12:36:09;;;;;;;4.13;1.80;;;19.90;60.40;;;;;;5114352;28;20453;-67
2024/03/21 12:42:02;;;;;;;3.80;1.50;;;21.20;53.50;;;;;;5112069;28;20410;-66
2024/03/21 12:44:56;;;;;;;2.87;1.70;;;21.00;52.00;;;;;;5116709;28;20484;-65
2024/03/21 12:47:23;;;;;;;4.93;1.70;;;20.70;51.60;;;;;;5081524;28;20817;-65
2024/03/21 12:49:50;;;;;;;3.57;1.60;;;20.50;50.50;;;;;;5115320;28;20462;-65
2024/03/21 12:52:17;;;;;;;3.53;1.80;;;20.30;51.00;;;;;;5115308;28;20439;-65
2024/03/21 12:54:43;;;;;;;3.33;1.43;;;20.10;50.80;;;;;;5115676;28;20458;-65
2024/03/21 12:57:16;;;;;;;3.57;1.60;;;20.10;50.80;;;;;;5115695;28;20434;-65
2024/03/21 12:59:42;;;;;;;2.90;1.80;;;20.10;50.70;;;;;;5115764;28;20493;-66
2024/03/21 13:02:09;;;;;;;5.13;2.57;;;19.90;49.40;;;;;;5115794;28;20438;-66
2024/03/21 13:04:36;;;;;;;3.80;2.03;;;19.80;49.80;;;;;;5115216;28;20434;-65
2024/03/21 13:07:04;;;;;;;5.03;1.77;;;19.80;50.80;;;;;;5115451;28;20475;-65
2024/03/21 13:09:30;;;;;;;3.90;1.90;;;19.90;51.00;;;;;;5115239;28;20434;-65
2024/03/21 13:11:58;;;;;;;3.40;1.80;;;19.90;50.70;;;;;;5114702;28;20443;-67
2024/03/21 13:14:24;;;;;;;4.00;1.93;;;19.90;50.70;;;;;;5114371;28;21025;-65
2024/03/21 13:16:51;;;;;;;4.00;2.07;;;19.90;48.80;;;;;;5115360;28;20434;-67
2024/03/21 13:19:17;;;;;;;6.40;2.60;;;19.80;48.40;;;;;;5115184;28;20565;-66
2024/03/21 13:21:44;;;;;;;5.23;2.17;;;19.90;48.80;;;;;;5114872;28;20441;-66
2024/03/21 13:24:11;;;;;;;3.43;2.00;;;20.10;49.10;;;;;;5115234;28;20464;-66
2024/03/21 13:26:38;;;;;;;3.83;2.67;;;20.40;47.80;;;;;;5114759;28;20446;-66
2024/03/21 13:29:04;;;;;;;3.93;2.27;;;20.70;47.00;;;;;;5114718;28;20438;-66
2024/03/21 13:31:33;;;;;;;4.50;2.83;;;20.80;46.90;;;;;;5114932;28;20434;-66
2024/03/21 13:33:59;;;;;;;3.90;2.33;;;21.00;46.90;;;;;;5114725;28;20940;-66
2024/03/21 13:36:26;;;;;;;4.20;2.17;;;21.00;44.80;;;;;;5115008;28;20468;-67
2024/03/21 13:38:57;;;;;;;3.40;1.70;;;20.90;45.90;;;;;;5114511;28;20542;-67
2024/03/21 13:41:25;;;;;;;3.53;2.53;;;20.90;46.70;;;;;;5114619;28;20426;-66
2024/03/21 13:43:51;;;;;;;4.37;2.43;;;20.90;45.60;;;;;;5114781;28;20542;-66
2024/03/21 13:46:18;;;;;;;4.87;2.37;;;20.90;44.50;;;;;;5114762;28;20434;-66
2024/03/21 13:48:44;;;;;;;3.97;3.00;;;20.90;45.00;;;;;;5114459;28;20897;-66
2024/03/21 13:51:11;;;;;;;5.97;2.13;;;20.80;44.90;;;;;;5114648;28;20434;-66
2024/03/21 13:53:37;;;;;;;4.10;2.27;;;20.60;45.20;;;;;;5114665;28;20435;-66
2024/03/21 13:56:05;;;;;;;3.40;2.33;;;20.50;45.10;;;;;;5114363;28;20992;-66
2024/03/21 13:58:32;;;;;;;5.03;2.63;;;20.30;45.70;;;;;;5114703;28;20491;-66
2024/03/21 14:01:00;;;;;;;4.70;3.40;;;20.20;46.00;;;;;;5114498;28;20466;-66
2024/03/21 14:03:26;;;;;;;3.87;2.60;;;20.10;44.30;;;;;;5114130;28;20495;-66
2024/03/21 14:06:04;;;;;;;4.60;2.87;;;19.80;44.30;;;;;;5114155;28;20484;-66
2024/03/21 14:08:30;;;;;;;6.73;3.07;;;19.60;44.70;;;;;;5114049;28;20437;-66
2024/03/21 14:10:57;;;;;;;3.57;2.20;;;19.40;46.00;;;;;;5114365;28;20487;-66
2024/03/21 14:13:27;;;;;;;5.83;2.37;;;19.20;45.90;;;;;;5114310;28;20822;-66
2024/03/21 14:16:03;;;;;;;3.30;2.23;;;19.10;46.30;;;;;;5114435;28;20515;-66
2024/03/21 14:18:29;;;;;;;6.23;2.23;;;18.90;46.70;;;;;;5114231;28;20465;-67
2024/03/21 14:20:57;;;;;;;5.00;2.87;;;18.70;46.50;;;;;;5114286;28;20578;-66
2024/03/21 14:23:24;;;;;;;4.70;2.60;;;18.60;46.90;;;;;;5113697;28;20517;-66
2024/03/21 14:25:52;;;;;;;6.83;3.10;;;18.40;46.70;;;;;;5113610;28;20445;-66
2024/03/21 14:28:19;;;;;;;3.57;2.10;;;18.20;47.20;;;;;;5113681;28;20444;-66
2024/03/21 14:30:46;;;;;;;4.07;2.47;;;18.00;46.30;;;;;;5114086;28;20465;-66
2024/03/21 14:33:13;;;;;;;5.80;2.43;;;17.90;45.50;;;;;;5114015;28;20433;-66
2024/03/21 14:35:40;;;;;;;4.20;2.57;;;17.70;46.20;;;;;;5113695;28;20441;-66
2024/03/21 14:38:06;;;;;;;4.27;2.30;;;17.60;47.60;;;;;;5114182;28;20792;-66
2024/03/21 14:40:35;;;;;;;3.70;1.83;;;17.50;49.50;;;;;;5114176;28;20819;-66
2024/03/21 14:43:03;;;;;;;6.03;1.80;;;17.30;49.90;;;;;;5113873;28;20464;-66
2024/03/21 14:45:30;;;;;;;5.10;2.57;;;16.90;51.90;;;;;;5113802;28;20443;-66
2024/03/21 14:47:56;;;;;;;5.03;2.07;;;16.50;53.70;;;;;;5113820;28;20829;-66
2024/03/21 14:50:25;;;;;;;3.70;1.90;;;16.10;54.40;;;;;;5113540;28;20601;-66
2024/03/21 14:52:51;;;;;;;5.00;1.97;;;15.80;55.20;;;;;;5113201;28;20426;-66
2024/03/21 14:55:18;;;;;;;3.50;2.00;;;15.50;55.90;;;;;;5113505;28;20434;-66
2024/03/21 14:57:44;;;;;;;4.37;2.03;;;15.30;56.70;;;;;;5113068;28;20438;-66
2024/03/21 15:00:13;;;;;;;3.47;2.43;;;15.20;57.70;;;;;;5113012;28;20469;-66
2024/03/21 15:02:39;;;;;;;5.67;2.27;;;15.00;57.70;;;;;;5113538;28;20466;-66
2024/03/21 15:05:08;;;;;;;4.50;2.50;;;14.90;58.70;;;;;;5113295;28;20444;-66
2024/03/21 15:07:36;;;;;;;4.40;2.87;;;14.70;59.50;;;;;;5110941;28;20478;-67
2024/03/21 15:10:04;;;;;;;13.63;7.93;;;14.60;60.20;;;;;;5113292;28;20429;-66
2024/03/21 15:12:30;;;;;;;8.70;5.80;;;14.60;60.20;;;;;;5113049;28;20529;-66
2024/03/21 15:14:57;;;;;;;7.87;4.73;;;14.30;61.00;;;;;;5113011;28;20483;-66
2024/03/21 15:17:23;;;;;;;7.83;5.93;;;14.20;62.30;;;;;;5113282;28;20486;-66
2024/03/21 15:19:51;;;;;;;6.97;4.30;;;14.10;62.90;;;;;;5112937;28;20469;-66
2024/03/21 15:22:17;;;;;;;5.50;3.13;;;14.10;63.90;;;;;;5113193;28;20462;-66
2024/03/21 15:24:46;;;;;;;6.10;4.00;;;14.00;64.40;;;;;;5113281;28;20434;-66
2024/03/21 15:27:13;;;;;;;5.37;4.27;;;13.80;65.50;;;;;;5113174;28;20475;-66
2024/03/21 15:29:40;;;;;;;5.00;3.00;;;13.60;66.90;;;;;;5113293;28;20456;-66
2024/03/21 15:32:06;;;;;;;4.77;3.00;;;13.60;67.90;;;;;;5112819;28;20437;-66
2024/03/21 15:34:35;;;;;;;3.93;2.70;;;13.50;68.70;;;;;;5113115;28;20434;-66
2024/03/21 15:37:01;;;;;;;5.80;3.20;;;13.50;69.10;;;;;;5115477;28;20521;-66
2024/03/21 15:39:32;;;;;;;6.53;3.57;;;13.50;70.00;;;;;;5117119;28;20493;-66
2024/03/21 15:41:59;;;;;;;7.00;3.73;;;13.50;70.70;;;;;;5116574;28;20418;-66
2024/03/21 15:44:26;;;;;;;7.00;3.73;;;13.40;70.90;;;;;;5116468;28;20485;-66
2024/03/21 15:46:52;;;;;;;5.40;3.50;;;13.40;71.60;;;;;;5116795;28;20489;-66
2024/03/21 15:49:19;;;;;;;4.87;3.80;;;13.40;71.40;;;;;;5116961;28;20461;-66
2024/03/21 15:51:45;;;;;;;8.60;6.30;;;13.40;72.00;;;;;;5116697;28;20426;-66
2024/03/21 15:54:12;;;;;;;5.70;4.43;;;13.40;72.50;;;;;;5114321;28;20862;-66
2024/03/21 15:56:38;;;;;;;7.57;5.73;;;13.50;71.60;;;;;;5115576;28;20530;-66
2024/03/21 15:59:06;;;;;;;10.50;7.27;;;13.40;72.20;;;;;;5116118;28;20474;-67